sensor_id;sensor_type;location;lat;lon;timestamp;temperature;humidity
19256;DHT22;9762;52.490;13.410;2022-09-09T00:02:16;18.80;99.90
19256;DHT22;9762;52.490;13.410;2022-09-09T00:04:32;18.80;99.90
19256;DHT22;9762;52.490;13.410;2022-09-09T00:09:47;18.70;99.90
19256;DHT22;9762;52.490;13.410;2022-09-09T00:14:51;18.70;99.90
19256;DHT22;9762;52.490;13.410;2022-09-09T00:17:26;18.70;99.90
19256;DHT22;9762;52.490;13.410;2022-09-09T00:20:10;18.70;99.90
19256;DHT22;9762;52.490;13.410;2022-09-09T00:22:41;18.60;99.90
19256;DHT22;9762;52.490;13.410;2022-09-09T00:25:19;18.60;99.90
19256;DHT22;9762;52.490;13.410;2022-09-09T00:27:48;18.60;99.90
19256;DHT22;9762;52.490;13.410;2022-09-09T00:32:45;18.50;99.90
19256;DHT22;9762;52.490;13.410;2022-09-09T00:35:37;18.50;99.90
19256;DHT22;9762;52.490;13.410;2022-09-09T00:43:31;18.50;99.90
19256;DHT22;9762;52.490;13.410;2022-09-09T00:46:00;18.40;99.90
19256;DHT22;9762;52.490;13.410;2022-09-09T00:48:52;18.40;99.90
19256;DHT22;9762;52.490;13.410;2022-09-09T00:51:34;18.40;99.90
19256;DHT22;9762;52.490;13.410;2022-09-09T00:57:43;18.40;99.90
19256;DHT22;9762;52.490;13.410;2022-09-09T01:00:29;18.40;99.90
19256;DHT22;9762;52.490;13.410;2022-09-09T01:03:26;18.30;99.90
19256;DHT22;9762;52.490;13.410;2022-09-09T01:08:41;18.20;99.90
19256;DHT22;9762;52.490;13.410;2022-09-09T01:11:21;18.20;99.90
19256;DHT22;9762;52.490;13.410;2022-09-09T01:13:53;18.20;99.90
19256;DHT22;9762;52.490;13.410;2022-09-09T01:16:20;18.20;99.90
19256;DHT22;9762;52.490;13.410;2022-09-09T01:18:49;18.20;99.90
19256;DHT22;9762;52.490;13.410;2022-09-09T01:24:42;18.10;99.90
19256;DHT22;9762;52.490;13.410;2022-09-09T01:27:12;18.10;99.90
19256;DHT22;9762;52.490;13.410;2022-09-09T01:29:39;18.10;99.90
19256;DHT22;9762;52.490;13.410;2022-09-09T01:35:15;18.10;99.90
19256;DHT22;9762;52.490;13.410;2022-09-09T01:37:44;18.10;99.90
19256;DHT22;9762;52.490;13.410;2022-09-09T01:40:10;18.00;99.90
19256;DHT22;9762;52.490;13.410;2022-09-09T01:42:36;18.00;99.90
19256;DHT22;9762;52.490;13.410;2022-09-09T01:45:02;18.00;99.90
19256;DHT22;9762;52.490;13.410;2022-09-09T01:47:28;18.00;99.90
19256;DHT22;9762;52.490;13.410;2022-09-09T01:49:54;18.00;99.90
19256;DHT22;9762;52.490;13.410;2022-09-09T01:52:19;18.00;99.90
19256;DHT22;9762;52.490;13.410;2022-09-09T01:54:45;18.00;99.90
19256;DHT22;9762;52.490;13.410;2022-09-09T02:00:10;17.90;99.90
19256;DHT22;9762;52.490;13.410;2022-09-09T02:02:57;17.90;99.90
19256;DHT22;9762;52.490;13.410;2022-09-09T02:05:44;17.90;99.90
19256;DHT22;9762;52.490;13.410;2022-09-09T02:08:17;17.90;99.90
19256;DHT22;9762;52.490;13.410;2022-09-09T02:10:49;17.90;99.90
19256;DHT22;9762;52.490;13.410;2022-09-09T02:13:19;17.90;99.90
19256;DHT22;9762;52.490;13.410;2022-09-09T02:18:21;17.90;99.90
19256;DHT22;9762;52.490;13.410;2022-09-09T02:20:50;17.80;99.90
19256;DHT22;9762;52.490;13.410;2022-09-09T02:23:17;17.80;99.90
19256;DHT22;9762;52.490;13.410;2022-09-09T02:25:44;17.80;99.90
19256;DHT22;9762;52.490;13.410;2022-09-09T02:28:12;17.80;99.90
19256;DHT22;9762;52.490;13.410;2022-09-09T02:30:40;17.80;99.90
19256;DHT22;9762;52.490;13.410;2022-09-09T02:33:09;17.80;99.90
19256;DHT22;9762;52.490;13.410;2022-09-09T02:35:36;17.80;99.90
19256;DHT22;9762;52.490;13.410;2022-09-09T02:38:07;17.70;99.90
19256;DHT22;9762;52.490;13.410;2022-09-09T02:40:33;17.80;99.90
19256;DHT22;9762;52.490;13.410;2022-09-09T02:42:59;17.70;99.90
19256;DHT22;9762;52.490;13.410;2022-09-09T02:45:28;17.80;99.90
19256;DHT22;9762;52.490;13.410;2022-09-09T02:48:21;17.80;99.90
19256;DHT22;9762;52.490;13.410;2022-09-09T02:53:27;17.70;99.90
19256;DHT22;9762;52.490;13.410;2022-09-09T02:56:00;17.70;99.90
19256;DHT22;9762;52.490;13.410;2022-09-09T02:58:28;17.70;99.90
19256;DHT22;9762;52.490;13.410;2022-09-09T03:00:54;17.70;99.90
19256;DHT22;9762;52.490;13.410;2022-09-09T03:03:22;17.70;99.90
19256;DHT22;9762;52.490;13.410;2022-09-09T03:05:48;17.70;99.90
19256;DHT22;9762;52.490;13.410;2022-09-09T03:08:15;17.70;99.90
19256;DHT22;9762;52.490;13.410;2022-09-09T03:10:41;17.70;99.90
19256;DHT22;9762;52.490;13.410;2022-09-09T03:13:06;17.70;99.90
19256;DHT22;9762;52.490;13.410;2022-09-09T03:15:33;17.70;99.90
19256;DHT22;9762;52.490;13.410;2022-09-09T03:17:59;17.60;99.90
19256;DHT22;9762;52.490;13.410;2022-09-09T03:20:26;17.60;99.90
19256;DHT22;9762;52.490;13.410;2022-09-09T03:22:56;17.60;99.90
19256;DHT22;9762;52.490;13.410;2022-09-09T03:25:22;17.60;99.90
19256;DHT22;9762;52.490;13.410;2022-09-09T03:27:50;17.60;99.90
19256;DHT22;9762;52.490;13.410;2022-09-09T03:30:20;17.60;99.90
19256;DHT22;9762;52.490;13.410;2022-09-09T03:32:45;17.60;99.90
19256;DHT22;9762;52.490;13.410;2022-09-09T03:35:11;17.50;99.90
19256;DHT22;9762;52.490;13.410;2022-09-09T03:37:36;17.50;99.90
19256;DHT22;9762;52.490;13.410;2022-09-09T03:40:04;17.60;99.90
19256;DHT22;9762;52.490;13.410;2022-09-09T03:42:30;17.50;99.90
19256;DHT22;9762;52.490;13.410;2022-09-09T03:44:56;17.50;99.90
19256;DHT22;9762;52.490;13.410;2022-09-09T03:47:23;17.50;99.90
19256;DHT22;9762;52.490;13.410;2022-09-09T03:49:48;17.50;99.90
19256;DHT22;9762;52.490;13.410;2022-09-09T03:52:15;17.50;99.90
19256;DHT22;9762;52.490;13.410;2022-09-09T03:54:41;17.50;99.90
19256;DHT22;9762;52.490;13.410;2022-09-09T03:57:08;17.50;99.90
19256;DHT22;9762;52.490;13.410;2022-09-09T03:59:34;17.50;99.90
19256;DHT22;9762;52.490;13.410;2022-09-09T04:02:00;17.50;99.90
19256;DHT22;9762;52.490;13.410;2022-09-09T04:04:26;17.40;99.90
19256;DHT22;9762;52.490;13.410;2022-09-09T04:06:52;17.50;99.90
19256;DHT22;9762;52.490;13.410;2022-09-09T04:09:18;17.50;99.90
19256;DHT22;9762;52.490;13.410;2022-09-09T04:11:43;17.50;99.90
19256;DHT22;9762;52.490;13.410;2022-09-09T04:14:09;17.50;99.90
19256;DHT22;9762;52.490;13.410;2022-09-09T04:16:34;17.50;99.90
19256;DHT22;9762;52.490;13.410;2022-09-09T04:19:03;17.50;99.90
19256;DHT22;9762;52.490;13.410;2022-09-09T04:21:30;17.50;99.90
19256;DHT22;9762;52.490;13.410;2022-09-09T04:23:56;17.50;99.90
19256;DHT22;9762;52.490;13.410;2022-09-09T04:26:21;17.50;99.90
19256;DHT22;9762;52.490;13.410;2022-09-09T04:28:47;17.50;99.90
19256;DHT22;9762;52.490;13.410;2022-09-09T04:31:19;17.50;99.90
19256;DHT22;9762;52.490;13.410;2022-09-09T04:33:46;17.50;99.90
19256;DHT22;9762;52.490;13.410;2022-09-09T04:36:13;17.50;99.90
19256;DHT22;9762;52.490;13.410;2022-09-09T04:38:39;17.50;99.90
19256;DHT22;9762;52.490;13.410;2022-09-09T04:41:05;17.50;99.90
19256;DHT22;9762;52.490;13.410;2022-09-09T04:43:31;17.40;99.90
19256;DHT22;9762;52.490;13.410;2022-09-09T04:45:57;17.50;99.90
19256;DHT22;9762;52.490;13.410;2022-09-09T04:48:24;17.50;99.90
19256;DHT22;9762;52.490;13.410;2022-09-09T04:50:55;17.50;99.90
19256;DHT22;9762;52.490;13.410;2022-09-09T04:53:20;17.50;99.90
19256;DHT22;9762;52.490;13.410;2022-09-09T04:55:47;17.40;99.90
19256;DHT22;9762;52.490;13.410;2022-09-09T04:58:13;17.40;99.90
19256;DHT22;9762;52.490;13.410;2022-09-09T05:00:38;17.40;99.90
19256;DHT22;9762;52.490;13.410;2022-09-09T05:03:05;17.40;99.90
19256;DHT22;9762;52.490;13.410;2022-09-09T05:05:32;17.40;99.90
19256;DHT22;9762;52.490;13.410;2022-09-09T05:08:03;17.40;99.90
19256;DHT22;9762;52.490;13.410;2022-09-09T05:10:28;17.40;99.90
19256;DHT22;9762;52.490;13.410;2022-09-09T05:12:54;17.40;99.90
19256;DHT22;9762;52.490;13.410;2022-09-09T05:15:20;17.40;99.90
19256;DHT22;9762;52.490;13.410;2022-09-09T05:17:46;17.40;99.90
19256;DHT22;9762;52.490;13.410;2022-09-09T05:20:12;17.40;99.90
19256;DHT22;9762;52.490;13.410;2022-09-09T05:22:37;17.40;99.90
19256;DHT22;9762;52.490;13.410;2022-09-09T05:25:03;17.40;99.90
19256;DHT22;9762;52.490;13.410;2022-09-09T05:27:29;17.40;99.90
19256;DHT22;9762;52.490;13.410;2022-09-09T05:29:56;17.50;99.90
19256;DHT22;9762;52.490;13.410;2022-09-09T05:32:22;17.50;99.90
19256;DHT22;9762;52.490;13.410;2022-09-09T05:34:48;17.50;99.90
19256;DHT22;9762;52.490;13.410;2022-09-09T05:37:14;17.60;99.90
19256;DHT22;9762;52.490;13.410;2022-09-09T05:39:39;17.60;99.90
19256;DHT22;9762;52.490;13.410;2022-09-09T05:42:05;17.60;99.90
19256;DHT22;9762;52.490;13.410;2022-09-09T05:44:31;17.60;99.90
19256;DHT22;9762;52.490;13.410;2022-09-09T05:46:56;17.70;99.90
19256;DHT22;9762;52.490;13.410;2022-09-09T05:49:23;17.70;99.90
19256;DHT22;9762;52.490;13.410;2022-09-09T05:51:49;17.70;99.90
19256;DHT22;9762;52.490;13.410;2022-09-09T05:54:16;17.70;99.90
19256;DHT22;9762;52.490;13.410;2022-09-09T05:56:41;17.70;99.90
19256;DHT22;9762;52.490;13.410;2022-09-09T05:59:07;17.80;99.90
19256;DHT22;9762;52.490;13.410;2022-09-09T06:01:35;17.80;99.90
19256;DHT22;9762;52.490;13.410;2022-09-09T06:04:02;17.80;99.90
19256;DHT22;9762;52.490;13.410;2022-09-09T06:06:31;17.90;99.90
19256;DHT22;9762;52.490;13.410;2022-09-09T06:08:58;17.90;99.90
19256;DHT22;9762;52.490;13.410;2022-09-09T06:11:28;17.90;99.90
19256;DHT22;9762;52.490;13.410;2022-09-09T06:13:58;18.00;99.90
19256;DHT22;9762;52.490;13.410;2022-09-09T06:16:25;18.00;99.90
19256;DHT22;9762;52.490;13.410;2022-09-09T06:18:53;18.00;99.90
19256;DHT22;9762;52.490;13.410;2022-09-09T06:21:23;18.00;99.90
19256;DHT22;9762;52.490;13.410;2022-09-09T06:23:49;18.00;99.90
19256;DHT22;9762;52.490;13.410;2022-09-09T06:28:49;18.10;99.90
19256;DHT22;9762;52.490;13.410;2022-09-09T06:31:17;18.10;99.90
19256;DHT22;9762;52.490;13.410;2022-09-09T06:33:46;18.20;99.90
19256;DHT22;9762;52.490;13.410;2022-09-09T06:38:49;18.30;99.90
19256;DHT22;9762;52.490;13.410;2022-09-09T06:41:16;18.30;99.90
19256;DHT22;9762;52.490;13.410;2022-09-09T06:43:43;18.40;99.90
19256;DHT22;9762;52.490;13.410;2022-09-09T06:46:11;18.50;99.90
19256;DHT22;9762;52.490;13.410;2022-09-09T06:48:39;18.50;99.90
19256;DHT22;9762;52.490;13.410;2022-09-09T06:51:10;18.50;99.90
19256;DHT22;9762;52.490;13.410;2022-09-09T06:53:40;18.60;99.90
19256;DHT22;9762;52.490;13.410;2022-09-09T06:58:47;18.70;99.90
19256;DHT22;9762;52.490;13.410;2022-09-09T07:01:16;18.70;99.90
19256;DHT22;9762;52.490;13.410;2022-09-09T07:03:45;18.80;99.90
19256;DHT22;9762;52.490;13.410;2022-09-09T07:06:22;18.80;99.90
19256;DHT22;9762;52.490;13.410;2022-09-09T07:08:55;18.90;99.90
19256;DHT22;9762;52.490;13.410;2022-09-09T07:11:22;18.90;99.90
19256;DHT22;9762;52.490;13.410;2022-09-09T07:13:49;19.00;99.90
19256;DHT22;9762;52.490;13.410;2022-09-09T07:16:16;19.10;99.90
19256;DHT22;9762;52.490;13.410;2022-09-09T07:18:43;19.10;99.90
19256;DHT22;9762;52.490;13.410;2022-09-09T07:21:13;19.20;99.90
19256;DHT22;9762;52.490;13.410;2022-09-09T07:23:39;19.30;99.90
19256;DHT22;9762;52.490;13.410;2022-09-09T07:26:16;19.30;99.90
19256;DHT22;9762;52.490;13.410;2022-09-09T07:28:42;19.40;99.90
19256;DHT22;9762;52.490;13.410;2022-09-09T07:31:14;19.50;99.90
19256;DHT22;9762;52.490;13.410;2022-09-09T07:33:42;19.50;99.90
19256;DHT22;9762;52.490;13.410;2022-09-09T07:36:10;19.60;99.90
19256;DHT22;9762;52.490;13.410;2022-09-09T07:38:46;19.70;99.90
19256;DHT22;9762;52.490;13.410;2022-09-09T07:41:24;19.80;99.90
19256;DHT22;9762;52.490;13.410;2022-09-09T07:43:51;19.90;99.90
19256;DHT22;9762;52.490;13.410;2022-09-09T07:46:20;20.00;99.90
19256;DHT22;9762;52.490;13.410;2022-09-09T07:48:48;20.10;99.90
19256;DHT22;9762;52.490;13.410;2022-09-09T07:51:19;20.20;99.90
19256;DHT22;9762;52.490;13.410;2022-09-09T07:53:46;20.30;99.90
19256;DHT22;9762;52.490;13.410;2022-09-09T07:56:15;20.50;99.90
19256;DHT22;9762;52.490;13.410;2022-09-09T07:58:45;20.50;99.90
19256;DHT22;9762;52.490;13.410;2022-09-09T08:01:16;20.60;99.90
19256;DHT22;9762;52.490;13.410;2022-09-09T08:03:44;20.70;99.90
19256;DHT22;9762;52.490;13.410;2022-09-09T08:06:11;20.80;99.90
19256;DHT22;9762;52.490;13.410;2022-09-09T08:08:37;20.80;99.90
19256;DHT22;9762;52.490;13.410;2022-09-09T08:11:07;20.90;99.90
19256;DHT22;9762;52.490;13.410;2022-09-09T08:13:36;21.00;99.90
19256;DHT22;9762;52.490;13.410;2022-09-09T08:16:11;21.10;99.90
19256;DHT22;9762;52.490;13.410;2022-09-09T08:18:37;21.10;99.90
19256;DHT22;9762;52.490;13.410;2022-09-09T08:21:12;21.20;99.90
19256;DHT22;9762;52.490;13.410;2022-09-09T08:23:42;21.20;99.90
19256;DHT22;9762;52.490;13.410;2022-09-09T08:26:12;21.30;99.70
19256;DHT22;9762;52.490;13.410;2022-09-09T08:28:39;21.30;99.60
19256;DHT22;9762;52.490;13.410;2022-09-09T08:31:11;21.30;99.10
19256;DHT22;9762;52.490;13.410;2022-09-09T08:33:37;21.40;99.40
19256;DHT22;9762;52.490;13.410;2022-09-09T08:36:04;21.40;99.50
19256;DHT22;9762;52.490;13.410;2022-09-09T08:38:30;21.40;99.30
19256;DHT22;9762;52.490;13.410;2022-09-09T08:41:07;21.50;99.10
19256;DHT22;9762;52.490;13.410;2022-09-09T08:43:36;21.60;99.00
19256;DHT22;9762;52.490;13.410;2022-09-09T08:46:27;21.60;99.30
19256;DHT22;9762;52.490;13.410;2022-09-09T08:49:00;21.60;98.80
19256;DHT22;9762;52.490;13.410;2022-09-09T08:51:31;21.70;99.00
19256;DHT22;9762;52.490;13.410;2022-09-09T08:54:00;21.70;98.80
19256;DHT22;9762;52.490;13.410;2022-09-09T08:56:27;21.80;98.70
19256;DHT22;9762;52.490;13.410;2022-09-09T08:58:56;21.80;98.70
19256;DHT22;9762;52.490;13.410;2022-09-09T09:09:39;22.00;98.40
19256;DHT22;9762;52.490;13.410;2022-09-09T09:12:20;22.10;98.40
19256;DHT22;9762;52.490;13.410;2022-09-09T09:14:48;22.20;98.00
19256;DHT22;9762;52.490;13.410;2022-09-09T09:17:14;22.30;97.80
19256;DHT22;9762;52.490;13.410;2022-09-09T09:19:43;22.40;97.90
19256;DHT22;9762;52.490;13.410;2022-09-09T09:22:21;22.50;97.50
19256;DHT22;9762;52.490;13.410;2022-09-09T09:30:17;22.70;96.70
19256;DHT22;9762;52.490;13.410;2022-09-09T09:35:20;22.70;96.00
19256;DHT22;9762;52.490;13.410;2022-09-09T09:37:45;22.70;96.00
19256;DHT22;9762;52.490;13.410;2022-09-09T09:40:20;22.80;95.70
19256;DHT22;9762;52.490;13.410;2022-09-09T09:42:55;22.80;96.10
19256;DHT22;9762;52.490;13.410;2022-09-09T09:45:42;22.80;95.60
19256;DHT22;9762;52.490;13.410;2022-09-09T09:48:11;22.80;95.30
19256;DHT22;9762;52.490;13.410;2022-09-09T09:50:50;22.90;95.40
19256;DHT22;9762;52.490;13.410;2022-09-09T09:53:26;23.00;95.50
19256;DHT22;9762;52.490;13.410;2022-09-09T09:56:01;23.00;95.30
19256;DHT22;9762;52.490;13.410;2022-09-09T09:58:30;23.10;95.30
19256;DHT22;9762;52.490;13.410;2022-09-09T10:00:57;23.10;95.10
19256;DHT22;9762;52.490;13.410;2022-09-09T10:03:31;23.20;95.00
19256;DHT22;9762;52.490;13.410;2022-09-09T10:05:57;23.30;95.00
19256;DHT22;9762;52.490;13.410;2022-09-09T10:08:25;23.30;94.90
19256;DHT22;9762;52.490;13.410;2022-09-09T10:11:05;23.50;94.60
19256;DHT22;9762;52.490;13.410;2022-09-09T10:19:15;23.80;93.80
19256;DHT22;9762;52.490;13.410;2022-09-09T10:22:05;23.80;93.40
19256;DHT22;9762;52.490;13.410;2022-09-09T10:27:15;23.90;92.50
19256;DHT22;9762;52.490;13.410;2022-09-09T10:30:09;24.00;92.50
19256;DHT22;9762;52.490;13.410;2022-09-09T10:32:49;24.00;92.20
19256;DHT22;9762;52.490;13.410;2022-09-09T10:35:39;24.20;92.20
19256;DHT22;9762;52.490;13.410;2022-09-09T10:38:14;24.30;92.10
19256;DHT22;9762;52.490;13.410;2022-09-09T10:48:41;24.80;90.20
19256;DHT22;9762;52.490;13.410;2022-09-09T10:51:33;25.00;90.30
19256;DHT22;9762;52.490;13.410;2022-09-09T10:54:19;25.30;88.50
19256;DHT22;9762;52.490;13.410;2022-09-09T10:56:54;25.80;88.70
19256;DHT22;9762;52.490;13.410;2022-09-09T11:01:52;29.10;86.70
19256;DHT22;9762;52.490;13.410;2022-09-09T11:12:19;36.70;55.50
19256;DHT22;9762;52.490;13.410;2022-09-09T11:14:50;37.80;53.80
19256;DHT22;9762;52.490;13.410;2022-09-09T11:17:27;37.90;51.10
19256;DHT22;9762;52.490;13.410;2022-09-09T11:19:55;37.40;50.10
19256;DHT22;9762;52.490;13.410;2022-09-09T11:22:50;36.50;50.00
19256;DHT22;9762;52.490;13.410;2022-09-09T11:35:57;32.40;83.90
19256;DHT22;9762;52.490;13.410;2022-09-09T11:41:04;31.60;78.90
19256;DHT22;9762;52.490;13.410;2022-09-09T11:46:14;33.90;90.90
19256;DHT22;9762;52.490;13.410;2022-09-09T11:48:45;35.00;82.00
19256;DHT22;9762;52.490;13.410;2022-09-09T11:56:29;35.70;73.70
19256;DHT22;9762;52.490;13.410;2022-09-09T11:59:17;35.80;72.60
19256;DHT22;9762;52.490;13.410;2022-09-09T12:01:45;36.10;71.20
19256;DHT22;9762;52.490;13.410;2022-09-09T12:12:30;39.50;46.20
19256;DHT22;9762;52.490;13.410;2022-09-09T12:17:26;40.80;43.20
19256;DHT22;9762;52.490;13.410;2022-09-09T12:28:26;38.10;44.10
19256;DHT22;9762;52.490;13.410;2022-09-09T12:36:00;35.40;46.00
19256;DHT22;9762;52.490;13.410;2022-09-09T12:40:58;34.20;64.00
19256;DHT22;9762;52.490;13.410;2022-09-09T12:43:25;33.60;73.00
19256;DHT22;9762;52.490;13.410;2022-09-09T12:45:55;33.10;76.50
19256;DHT22;9762;52.490;13.410;2022-09-09T12:50:53;31.90;91.90
19256;DHT22;9762;52.490;13.410;2022-09-09T12:53:33;31.40;67.10
19256;DHT22;9762;52.490;13.410;2022-09-09T12:56:21;31.00;59.40
19256;DHT22;9762;52.490;13.410;2022-09-09T13:01:25;30.20;92.60
19256;DHT22;9762;52.490;13.410;2022-09-09T13:03:52;29.90;55.80
19256;DHT22;9762;52.490;13.410;2022-09-09T13:06:24;29.70;56.20
19256;DHT22;9762;52.490;13.410;2022-09-09T13:08:51;29.40;57.10
19256;DHT22;9762;52.490;13.410;2022-09-09T13:11:29;29.10;57.50
19256;DHT22;9762;52.490;13.410;2022-09-09T13:13:57;28.80;65.40
19256;DHT22;9762;52.490;13.410;2022-09-09T13:16:27;28.50;65.10
19256;DHT22;9762;52.490;13.410;2022-09-09T13:19:00;28.30;80.90
19256;DHT22;9762;52.490;13.410;2022-09-09T13:21:38;28.30;83.30
19256;DHT22;9762;52.490;13.410;2022-09-09T13:27:20;27.70;61.10
19256;DHT22;9762;52.490;13.410;2022-09-09T13:29:52;27.50;61.70
19256;DHT22;9762;52.490;13.410;2022-09-09T13:32:23;27.40;62.30
19256;DHT22;9762;52.490;13.410;2022-09-09T13:35:00;27.30;62.90
19256;DHT22;9762;52.490;13.410;2022-09-09T13:37:42;27.20;63.00
19256;DHT22;9762;52.490;13.410;2022-09-09T13:40:23;27.20;63.10
19256;DHT22;9762;52.490;13.410;2022-09-09T13:42:56;27.20;63.90
19256;DHT22;9762;52.490;13.410;2022-09-09T13:45:24;27.30;65.10
19256;DHT22;9762;52.490;13.410;2022-09-09T13:47:59;27.50;62.80
19256;DHT22;9762;52.490;13.410;2022-09-09T13:50:39;27.50;63.10
19256;DHT22;9762;52.490;13.410;2022-09-09T13:53:19;27.60;62.80
19256;DHT22;9762;52.490;13.410;2022-09-09T13:55:48;27.80;61.80
19256;DHT22;9762;52.490;13.410;2022-09-09T13:58:16;28.00;62.20
19256;DHT22;9762;52.490;13.410;2022-09-09T14:00:47;28.20;61.50
19256;DHT22;9762;52.490;13.410;2022-09-09T14:03:21;28.30;61.10
19256;DHT22;9762;52.490;13.410;2022-09-09T14:05:47;28.50;60.70
19256;DHT22;9762;52.490;13.410;2022-09-09T14:08:26;28.60;60.50
19256;DHT22;9762;52.490;13.410;2022-09-09T14:10:56;28.60;60.20
19256;DHT22;9762;52.490;13.410;2022-09-09T14:13:31;28.60;59.70
19256;DHT22;9762;52.490;13.410;2022-09-09T14:15:57;28.60;60.00
19256;DHT22;9762;52.490;13.410;2022-09-09T14:18:25;28.70;59.70
19256;DHT22;9762;52.490;13.410;2022-09-09T14:20:58;28.90;60.00
19256;DHT22;9762;52.490;13.410;2022-09-09T14:23:27;29.20;60.40
19256;DHT22;9762;52.490;13.410;2022-09-09T14:25:56;29.60;60.20
19256;DHT22;9762;52.490;13.410;2022-09-09T14:28:21;30.10;58.80
19256;DHT22;9762;52.490;13.410;2022-09-09T14:30:50;30.30;57.80
19256;DHT22;9762;52.490;13.410;2022-09-09T14:33:15;30.40;57.20
19256;DHT22;9762;52.490;13.410;2022-09-09T14:35:46;30.70;57.40
19256;DHT22;9762;52.490;13.410;2022-09-09T14:38:14;31.00;56.90
19256;DHT22;9762;52.490;13.410;2022-09-09T14:40:40;31.10;56.10
19256;DHT22;9762;52.490;13.410;2022-09-09T14:43:10;31.10;55.90
19256;DHT22;9762;52.490;13.410;2022-09-09T14:45:36;31.10;55.70
19256;DHT22;9762;52.490;13.410;2022-09-09T14:48:05;30.90;55.70
19256;DHT22;9762;52.490;13.410;2022-09-09T14:50:34;30.70;55.50
19256;DHT22;9762;52.490;13.410;2022-09-09T14:53:04;30.40;55.90
19256;DHT22;9762;52.490;13.410;2022-09-09T14:55:34;30.20;56.00
19256;DHT22;9762;52.490;13.410;2022-09-09T14:58:00;30.00;56.50
19256;DHT22;9762;52.490;13.410;2022-09-09T15:00:28;29.70;56.80
19256;DHT22;9762;52.490;13.410;2022-09-09T15:02:54;29.50;57.20
19256;DHT22;9762;52.490;13.410;2022-09-09T15:05:23;29.30;57.90
19256;DHT22;9762;52.490;13.410;2022-09-09T15:07:49;29.10;58.40
19256;DHT22;9762;52.490;13.410;2022-09-09T15:10:15;28.80;58.90
19256;DHT22;9762;52.490;13.410;2022-09-09T15:12:44;28.70;59.50
19256;DHT22;9762;52.490;13.410;2022-09-09T15:15:12;28.50;60.10
19256;DHT22;9762;52.490;13.410;2022-09-09T15:17:40;28.40;61.00
19256;DHT22;9762;52.490;13.410;2022-09-09T15:20:09;28.30;61.60
19256;DHT22;9762;52.490;13.410;2022-09-09T15:22:34;28.20;61.10
19256;DHT22;9762;52.490;13.410;2022-09-09T15:25:02;28.10;61.10
19256;DHT22;9762;52.490;13.410;2022-09-09T15:27:33;28.00;59.70
19256;DHT22;9762;52.490;13.410;2022-09-09T15:30:04;28.00;58.90
19256;DHT22;9762;52.490;13.410;2022-09-09T15:32:36;27.90;58.50
19256;DHT22;9762;52.490;13.410;2022-09-09T15:35:04;27.80;57.70
19256;DHT22;9762;52.490;13.410;2022-09-09T15:37:32;27.80;57.20
19256;DHT22;9762;52.490;13.410;2022-09-09T15:42:25;27.50;93.00
19256;DHT22;9762;52.490;13.410;2022-09-09T15:44:50;27.40;57.00
19256;DHT22;9762;52.490;13.410;2022-09-09T15:47:19;27.30;57.30
19256;DHT22;9762;52.490;13.410;2022-09-09T15:49:48;27.20;57.50
19256;DHT22;9762;52.490;13.410;2022-09-09T15:52:16;27.10;57.60
19256;DHT22;9762;52.490;13.410;2022-09-09T15:54:44;27.00;57.80
19256;DHT22;9762;52.490;13.410;2022-09-09T15:57:13;26.90;58.00
19256;DHT22;9762;52.490;13.410;2022-09-09T15:59:41;26.80;58.50
19256;DHT22;9762;52.490;13.410;2022-09-09T16:02:10;26.80;58.90
19256;DHT22;9762;52.490;13.410;2022-09-09T16:04:36;26.70;59.00
19256;DHT22;9762;52.490;13.410;2022-09-09T16:07:05;26.70;59.40
19256;DHT22;9762;52.490;13.410;2022-09-09T16:09:36;26.60;59.50
19256;DHT22;9762;52.490;13.410;2022-09-09T16:12:14;26.60;59.70
19256;DHT22;9762;52.490;13.410;2022-09-09T16:14:42;26.50;60.00
19256;DHT22;9762;52.490;13.410;2022-09-09T16:17:08;26.40;60.40
19256;DHT22;9762;52.490;13.410;2022-09-09T16:19:34;26.40;60.60
19256;DHT22;9762;52.490;13.410;2022-09-09T16:22:03;26.40;60.80
19256;DHT22;9762;52.490;13.410;2022-09-09T16:24:32;26.30;60.70
19256;DHT22;9762;52.490;13.410;2022-09-09T16:27:03;26.20;61.10
19256;DHT22;9762;52.490;13.410;2022-09-09T16:29:34;26.20;61.30
19256;DHT22;9762;52.490;13.410;2022-09-09T16:32:00;26.20;61.70
19256;DHT22;9762;52.490;13.410;2022-09-09T16:34:31;26.10;62.10
19256;DHT22;9762;52.490;13.410;2022-09-09T16:37:01;26.10;62.20
19256;DHT22;9762;52.490;13.410;2022-09-09T16:39:41;26.00;62.30
19256;DHT22;9762;52.490;13.410;2022-09-09T16:42:07;25.90;62.40
19256;DHT22;9762;52.490;13.410;2022-09-09T16:44:39;25.90;62.50
19256;DHT22;9762;52.490;13.410;2022-09-09T16:47:07;25.80;65.10
19256;DHT22;9762;52.490;13.410;2022-09-09T16:49:35;25.70;63.00
19256;DHT22;9762;52.490;13.410;2022-09-09T16:52:02;25.60;71.40
19256;DHT22;9762;52.490;13.410;2022-09-09T16:54:28;25.60;79.10
19256;DHT22;9762;52.490;13.410;2022-09-09T16:56:56;25.50;63.80
19256;DHT22;9762;52.490;13.410;2022-09-09T16:59:22;25.40;63.90
19256;DHT22;9762;52.490;13.410;2022-09-09T17:01:54;25.40;64.10
19256;DHT22;9762;52.490;13.410;2022-09-09T17:04:22;25.40;64.30
19256;DHT22;9762;52.490;13.410;2022-09-09T17:06:50;25.30;64.90
19256;DHT22;9762;52.490;13.410;2022-09-09T17:09:20;25.20;65.10
19256;DHT22;9762;52.490;13.410;2022-09-09T17:11:54;25.20;65.80
19256;DHT22;9762;52.490;13.410;2022-09-09T17:14:21;25.10;66.80
19256;DHT22;9762;52.490;13.410;2022-09-09T17:16:54;25.00;68.20
19256;DHT22;9762;52.490;13.410;2022-09-09T17:19:31;25.00;68.80
19256;DHT22;9762;52.490;13.410;2022-09-09T17:21:56;24.90;70.20
19256;DHT22;9762;52.490;13.410;2022-09-09T17:24:24;24.80;71.50
19256;DHT22;9762;52.490;13.410;2022-09-09T17:27:00;24.70;72.30
19256;DHT22;9762;52.490;13.410;2022-09-09T17:29:31;24.60;72.70
19256;DHT22;9762;52.490;13.410;2022-09-09T17:32:00;24.50;73.60
19256;DHT22;9762;52.490;13.410;2022-09-09T17:34:30;24.40;73.50
19256;DHT22;9762;52.490;13.410;2022-09-09T17:36:58;24.40;73.40
19256;DHT22;9762;52.490;13.410;2022-09-09T17:39:27;24.30;73.10
19256;DHT22;9762;52.490;13.410;2022-09-09T17:41:58;24.20;72.90
19256;DHT22;9762;52.490;13.410;2022-09-09T17:44:26;24.20;71.90
19256;DHT22;9762;52.490;13.410;2022-09-09T17:46:53;24.10;70.10
19256;DHT22;9762;52.490;13.410;2022-09-09T17:49:22;24.00;69.70
19256;DHT22;9762;52.490;13.410;2022-09-09T17:51:50;23.90;69.20
19256;DHT22;9762;52.490;13.410;2022-09-09T17:54:18;23.80;69.20
19256;DHT22;9762;52.490;13.410;2022-09-09T17:56:49;23.70;69.40
19256;DHT22;9762;52.490;13.410;2022-09-09T17:59:17;23.60;69.70
19256;DHT22;9762;52.490;13.410;2022-09-09T18:01:47;23.50;69.90
19256;DHT22;9762;52.490;13.410;2022-09-09T18:04:18;23.50;70.40
19256;DHT22;9762;52.490;13.410;2022-09-09T18:09:20;23.20;70.20
19256;DHT22;9762;52.490;13.410;2022-09-09T18:11:51;23.10;71.50
19256;DHT22;9762;52.490;13.410;2022-09-09T18:14:20;23.00;72.30